Time;durP1;ratioP1;P1;durP2;ratioP2;P2;SDS_P1;SDS_P2;PMS_P1;PMS_P2;Temp;Humidity;BMP_temperature;BMP_pressure;BME280_temperature;BME280_humidity;BME280_pressure;Samples;Min_cycle;Max_cycle;Signal;HPM_P1;HPM_P2
2022/05/31 00:02:25;;;;;;;3.65;1.42;;;;;;;8.60;100.00;98231.97;15266015;19;20016;-56
2022/05/31 00:07:30;;;;;;;3.70;1.60;;;;;;;8.51;100.00;98225.72;15285695;19;20014;-54
2022/05/31 00:12:38;;;;;;;4.72;1.50;;;;;;;8.43;100.00;98221.06;15286463;19;20039;-54
2022/05/31 00:17:43;;;;;;;1.95;1.20;;;;;;;8.42;100.00;98221.19;15283196;19;20018;-57
2022/05/31 00:22:48;;;;;;;3.03;1.40;;;;;;;8.35;100.00;98220.97;15287628;19;20027;-55
2022/05/31 00:27:56;;;;;;;2.88;1.33;;;;;;;8.31;100.00;98230.34;15276591;19;20010;-56
2022/05/31 00:33:03;;;;;;;3.40;1.40;;;;;;;8.27;100.00;98218.22;15287949;19;20010;-56
2022/05/31 00:38:09;;;;;;;2.40;1.23;;;;;;;8.24;100.00;98219.38;15279631;19;20007;-55
2022/05/31 00:43:22;;;;;;;3.67;1.55;;;;;;;8.18;100.00;98222.63;15284522;19;20031;-54
2022/05/31 00:48:30;;;;;;;3.65;1.40;;;;;;;8.14;100.00;98216.72;15277855;19;20023;-55
2022/05/31 00:53:39;;;;;;;4.68;1.60;;;;;;;8.09;100.00;98221.72;15285520;19;20084;-56
2022/05/31 00:58:52;;;;;;;2.75;1.42;;;;;;;8.04;100.00;98217.81;15273075;19;20031;-53
2022/05/31 01:04:00;;;;;;;2.85;1.45;;;;;;;7.94;100.00;98224.03;15281829;19;20031;-55
2022/05/31 01:09:06;;;;;;;3.40;1.55;;;;;;;7.86;100.00;98223.94;15281563;19;20018;-54
2022/05/31 01:14:14;;;;;;;3.40;1.40;;;;;;;7.72;100.00;98218.09;15284345;19;20674;-57
2022/05/31 01:25:02;;;;;;;4.22;1.13;;;;;;;7.50;100.00;98215.78;15282063;19;20014;-57
2022/05/31 01:30:10;;;;;;;3.72;1.60;;;;;;;7.32;100.00;98215.69;15283118;19;20006;-54
2022/05/31 01:35:24;;;;;;;4.82;1.73;;;;;;;7.27;100.00;98208.09;15274231;19;20492;-58
2022/05/31 01:40:50;;;;;;;4.65;1.67;;;;;;;7.16;100.00;98214.50;15283557;19;20011;-58
2022/05/31 01:46:01;;;;;;;4.15;1.70;;;;;;;7.12;100.00;98206.84;15279173;19;20015;-57
2022/05/31 01:51:07;;;;;;;3.40;1.50;;;;;;;7.00;100.00;98209.69;15280840;19;20035;-58
2022/05/31 01:56:16;;;;;;;3.05;1.45;;;;;;;6.93;100.00;98201.44;15275186;19;20021;-58
2022/05/31 02:01:21;;;;;;;2.60;1.50;;;;;;;6.89;100.00;98201.81;15278179;19;20014;-57
2022/05/31 02:06:29;;;;;;;2.83;1.80;;;;;;;6.86;100.00;98213.69;15270588;19;20408;-54
2022/05/31 02:11:38;;;;;;;3.92;1.70;;;;;;;6.84;100.00;98210.28;15283000;19;20499;-53
2022/05/31 02:16:54;;;;;;;2.90;1.40;;;;;;;6.78;100.00;98214.38;15277307;19;20346;-57
2022/05/31 02:22:38;;;;;;;3.13;1.70;;;;;;;6.72;100.00;98220.31;15269275;19;20025;-58
2022/05/31 02:27:46;;;;;;;3.60;1.85;;;;;;;6.67;100.00;98214.53;15272782;19;20042;-54
2022/05/31 02:32:51;;;;;;;2.35;1.70;;;;;;;6.64;100.00;98212.16;15280147;19;20038;-52
2022/05/31 02:37:56;;;;;;;3.42;1.65;;;;;;;6.61;100.00;98226.66;15270825;19;20018;-55
2022/05/31 02:43:04;;;;;;;5.22;2.00;;;;;;;6.56;100.00;98225.38;15278751;19;20010;-58
2022/05/31 02:48:10;;;;;;;4.07;1.90;;;;;;;6.51;100.00;98219.63;15272481;19;20018;-53
2022/05/31 02:53:15;;;;;;;3.53;1.70;;;;;;;6.48;100.00;98220.72;15268304;19;20351;-54
2022/05/31 02:58:23;;;;;;;4.18;1.90;;;;;;;6.47;100.00;98209.19;15268850;19;20015;-54
2022/05/31 03:03:47;;;;;;;3.17;1.65;;;;;;;6.45;100.00;98213.84;15277439;19;20026;-54
2022/05/31 03:09:13;;;;;;;3.28;2.00;;;;;;;6.44;100.00;98222.84;15265156;19;20014;-57
2022/05/31 03:14:25;;;;;;;4.47;2.13;;;;;;;6.42;100.00;98214.09;15267455;19;20039;-55
2022/05/31 03:19:32;;;;;;;;;;;;;;;6.43;100.00;98218.47;15263789;19;20010;-56
2022/05/31 03:24:45;;;;;;;5.32;2.40;;;;;;;6.37;100.00;98208.34;15269272;19;19926;-57
2022/05/31 03:29:53;;;;;;;4.25;2.10;;;;;;;6.35;100.00;98207.63;15287586;19;20041;-56
2022/05/31 03:34:59;;;;;;;6.68;2.30;;;;;;;6.37;100.00;98207.47;15282979;19;20046;-54
2022/05/31 03:40:06;;;;;;;5.35;2.50;;;;;;;6.38;100.00;98211.84;15273066;19;20006;-53
2022/05/31 03:45:19;;;;;;;4.83;2.40;;;;;;;6.43;100.00;98214.97;15282289;19;20023;-53
2022/05/31 03:50:44;;;;;;;4.40;1.88;;;;;;;6.48;100.00;98215.38;15288574;19;20621;-53
2022/05/31 03:55:50;;;;;;;4.55;2.10;;;;;;;6.54;100.00;98213.97;15283738;19;20370;-52
2022/05/31 04:00:59;;;;;;;5.80;2.15;;;;;;;6.58;100.00;98210.91;15286485;19;20036;-52
2022/05/31 04:06:04;;;;;;;3.15;1.90;;;;;;;6.63;100.00;98208.63;15283336;19;20018;-51
2022/05/31 04:11:09;;;;;;;5.18;2.15;;;;;;;6.69;100.00;98209.88;15288959;19;20017;-52
2022/05/31 04:16:20;;;;;;;6.47;2.20;;;;;;;6.72;100.00;98209.63;15274924;19;20043;-54
2022/05/31 04:21:33;;;;;;;5.07;2.25;;;;;;;6.74;100.00;98207.66;15289259;19;20014;-52
2022/05/31 04:26:41;;;;;;;3.83;2.10;;;;;;;6.83;100.00;98215.81;15280357;19;20017;-53
2022/05/31 04:32:04;;;;;;;5.47;2.40;;;;;;;6.92;100.00;98212.25;15282894;19;20018;-51
2022/05/31 04:37:24;;;;;;;4.60;2.28;;;;;;;7.00;100.00;98212.38;15280532;19;20018;-53
2022/05/31 04:42:32;;;;;;;3.35;1.90;;;;;;;7.09;100.00;98219.56;15287637;19;20405;-53
2022/05/31 04:47:43;;;;;;;4.88;2.10;;;;;;;7.20;100.00;98217.72;15271716;19;20236;-51
2022/05/31 04:52:48;;;;;;;5.22;2.22;;;;;;;7.31;100.00;98219.38;15286238;19;20085;-51
2022/05/31 04:57:53;;;;;;;4.65;2.17;;;;;;;7.42;100.00;98215.69;15279251;19;20034;-52
2022/05/31 05:03:01;;;;;;;15.80;5.68;;;;;;;7.52;100.00;98211.97;15283018;19;20070;-52
2022/05/31 05:08:09;;;;;;;3.35;1.80;;;;;;;7.60;100.00;98216.59;15276742;19;20011;-60
2022/05/31 05:13:15;;;;;;;7.05;2.20;;;;;;;7.68;100.00;98224.75;15282539;19;20011;-55
2022/05/31 05:18:41;;;;;;;3.65;2.10;;;;;;;7.78;100.00;98219.31;15272351;19;20018;-51
2022/05/31 05:23:48;;;;;;;3.85;2.20;;;;;;;7.89;100.00;98215.63;15280965;19;20389;-52
2022/05/31 05:34:26;;;;;;;7.43;2.60;;;;;;;8.15;100.00;98212.22;15278624;19;20020;-52
2022/05/31 05:39:33;;;;;;;4.35;2.80;;;;;;;8.31;100.00;98215.06;15273924;19;20011;-50
2022/05/31 05:45:08;;;;;;;4.40;2.50;;;;;;;8.46;100.00;98206.50;15278239;19;20058;-51
2022/05/31 05:50:16;;;;;;;5.20;2.50;;;;;;;8.66;100.00;98200.97;15271848;19;20018;-54
2022/05/31 05:55:27;;;;;;;5.15;2.83;;;;;;;8.88;100.00;98199.66;15278587;19;20173;-52
2022/05/31 06:00:55;;;;;;;4.10;2.60;;;;;;;9.07;100.00;98204.84;15281023;19;20019;-52
2022/05/31 06:06:07;;;;;;;4.18;2.22;;;;;;;9.31;100.00;98189.88;15276755;19;20014;-51
2022/05/31 06:11:19;;;;;;;4.50;2.20;;;;;;;9.59;100.00;98191.53;15279307;19;20071;-55
2022/05/31 06:16:27;;;;;;;4.20;2.00;;;;;;;9.81;100.00;98185.59;15270926;19;20035;-51
2022/05/31 06:21:36;;;;;;;3.45;1.70;;;;;;;10.06;100.00;98176.75;15273200;19;20463;-54
2022/05/31 06:26:55;;;;;;;5.35;1.80;;;;;;;10.32;100.00;98168.56;15273392;19;20029;-53
2022/05/31 06:32:30;;;;;;;2.58;1.60;;;;;;;10.57;100.00;98174.00;15278156;19;20015;-54
2022/05/31 06:37:38;;;;;;;2.95;1.45;;;;;;;10.78;100.00;98177.03;15274382;19;20460;-55
2022/05/31 06:42:44;;;;;;;1.70;1.20;;;;;;;10.98;100.00;98160.53;15274335;19;20566;-55
2022/05/31 06:48:12;;;;;;;2.40;1.40;;;;;;;11.29;100.00;98162.50;15273179;19;20010;-54
2022/05/31 06:59:26;;;;;;;1.73;1.08;;;;;;;11.85;100.00;98146.28;15269746;19;20057;-52
2022/05/31 07:04:31;;;;;;;1.63;1.10;;;;;;;12.07;100.00;98148.38;15274630;19;20015;-53
2022/05/31 07:09:39;;;;;;;2.72;1.00;;;;;;;12.24;100.00;98149.97;15274869;19;20031;-52
2022/05/31 07:14:54;;;;;;;2.20;1.10;;;;;;;12.42;100.00;98146.97;15271342;19;20025;-54
2022/05/31 07:20:27;;;;;;;1.63;1.10;;;;;;;12.65;100.00;98146.13;15272077;19;20145;-56
2022/05/31 07:25:34;;;;;;;1.23;0.90;;;;;;;12.86;100.00;98136.47;15265381;19;20019;-55
2022/05/31 07:30:45;;;;;;;1.20;0.90;;;;;;;13.12;100.00;98141.44;15275383;19;20014;-52
2022/05/31 07:35:59;;;;;;;1.33;1.00;;;;;;;13.23;100.00;98138.28;15270052;19;20018;-52
2022/05/31 07:41:07;;;;;;;2.25;0.88;;;;;;;13.43;100.00;98137.78;15269121;19;20479;-56
2022/05/31 07:46:13;;;;;;;1.77;0.90;;;;;;;13.53;100.00;98141.06;15267490;19;20402;-55
2022/05/31 07:51:19;;;;;;;1.60;1.00;;;;;;;13.71;100.00;98129.84;15273710;19;20022;-55
2022/05/31 07:56:50;;;;;;;1.50;0.90;;;;;;;13.83;100.00;98122.06;15268750;19;20025;-52
2022/05/31 08:02:27;;;;;;;1.27;0.90;;;;;;;13.97;100.00;98123.06;15268509;19;20337;-55
2022/05/31 08:07:33;;;;;;;1.17;0.80;;;;;;;14.07;100.00;98128.16;15268159;19;20018;-57
2022/05/31 08:12:42;;;;;;;1.17;0.70;;;;;;;14.25;100.00;98124.19;15281129;19;20657;-56
2022/05/31 08:17:46;;;;;;;2.08;0.82;;;;;;;14.53;100.00;98115.28;15281011;19;20027;-52
2022/05/31 08:22:51;;;;;;;2.30;0.80;;;;;;;14.67;100.00;98106.25;15286574;19;20019;-52
2022/05/31 08:27:59;;;;;;;0.93;0.70;;;;;;;14.84;100.00;98100.56;15282368;19;20025;-55
2022/05/31 08:33:05;;;;;;;0.80;0.80;;;;;;;15.05;100.00;98092.38;15280743;19;20463;-51
2022/05/31 08:38:10;;;;;;;5.18;0.68;;;;;;;15.25;100.00;98097.94;15282948;19;20027;-54
2022/05/31 08:43:25;;;;;;;0.98;0.60;;;;;;;15.39;100.00;98084.44;15284600;19;20014;-51
2022/05/31 08:48:34;;;;;;;0.90;0.60;;;;;;;15.69;98.10;98079.56;15277860;19;20019;-55
2022/05/31 08:53:45;;;;;;;0.50;0.50;;;;;;;15.85;100.00;98075.69;15282383;19;20035;-54
2022/05/31 08:58:58;;;;;;;0.97;0.40;;;;;;;15.96;92.21;98073.41;15283765;19;20011;-53
2022/05/31 09:04:17;;;;;;;0.75;0.52;;;;;;;16.11;93.39;98067.81;15276987;19;20538;-52
2022/05/31 09:09:26;;;;;;;2.00;0.70;;;;;;;16.40;100.00;98060.34;15281251;19;20021;-51
2022/05/31 09:14:45;;;;;;;0.70;0.47;;;;;;;16.58;85.51;98063.25;15280643;19;20010;-51
2022/05/31 09:19:58;;;;;;;0.80;0.60;;;;;;;16.69;93.08;98058.22;15280093;19;20014;-50
2022/05/31 09:25:05;;;;;;;1.13;0.50;;;;;;;16.84;91.03;98058.88;15261489;19;20006;-52
2022/05/31 09:30:25;;;;;;;0.55;0.55;;;;;;;16.91;76.66;98050.69;15280930;19;20460;-53
2022/05/31 09:35:50;;;;;;;0.93;0.45;;;;;;;16.99;72.44;98064.09;15274529;19;20089;-81
2022/05/31 09:41:06;;;;;;;0.82;0.40;;;;;;;17.09;75.29;98047.34;15286460;19;20014;-82
2022/05/31 09:46:17;;;;;;;1.25;0.70;;;;;;;17.28;68.18;98033.88;15302701;19;20023;-80
2022/05/31 09:51:26;;;;;;;;;;;;;;;17.35;67.28;98034.69;15340399;19;20011;-81
2022/05/31 10:02:31;;;;;;;3.42;0.60;;;;;;;17.58;75.64;98023.28;15296950;19;20650;-80
2022/05/31 10:07:40;;;;;;;0.90;0.60;;;;;;;17.95;76.68;98007.19;15279450;19;20369;-79
2022/05/31 10:12:54;;;;;;;0.55;0.50;;;;;;;18.23;76.05;98007.84;15283990;19;20019;-80
2022/05/31 10:18:08;;;;;;;0.77;0.68;;;;;;;18.42;68.24;98006.03;15282803;19;20097;-80
2022/05/31 10:23:15;;;;;;;1.30;0.70;;;;;;;18.55;78.35;97999.63;15288027;19;20010;-81
2022/05/31 10:29:03;;;;;;;0.80;0.60;;;;;;;18.95;74.34;97999.28;15278283;19;20025;-80
2022/05/31 10:34:36;;;;;;;1.70;0.70;;;;;;;19.00;68.04;97988.50;15287655;19;20122;-81
2022/05/31 10:39:41;;;;;;;2.17;0.80;;;;;;;18.93;70.70;97985.84;15282701;19;20006;-81
2022/05/31 10:44:52;;;;;;;3.50;0.70;;;;;;;19.16;69.67;97981.63;15283813;19;20116;-81
2022/05/31 10:50:00;;;;;;;0.70;0.60;;;;;;;19.20;66.52;97980.09;15282464;19;20014;-81
2022/05/31 10:55:30;;;;;;;0.98;0.65;;;;;;;19.40;67.43;97976.28;15279991;19;20021;-80
2022/05/31 11:00:41;;;;;;;1.15;0.60;;;;;;;19.70;66.34;97973.56;15277693;19;20031;-81
2022/05/31 11:06:04;;;;;;;1.58;0.70;;;;;;;19.93;61.87;97966.56;15279679;19;20042;-81
2022/05/31 11:11:31;;;;;;;1.45;0.60;;;;;;;20.23;63.61;97949.25;15277092;19;21192;-81
2022/05/31 11:16:57;;;;;;;2.47;0.70;;;;;;;20.33;59.53;97954.97;15286633;19;20425;-81
2022/05/31 11:22:21;;;;;;;1.35;0.70;;;;;;;20.12;57.32;97947.34;15299041;19;20043;-81
2022/05/31 11:27:41;;;;;;;1.13;0.68;;;;;;;20.19;59.58;97942.56;15288546;19;20018;-81
2022/05/31 11:32:59;;;;;;;1.25;0.55;;;;;;;20.34;59.54;97939.41;15327232;19;20017;-80
2022/05/31 11:38:12;;;;;;;1.33;0.70;;;;;;;20.60;58.16;97938.09;15306172;19;20025;-81
2022/05/31 11:43:37;;;;;;;1.73;0.80;;;;;;;20.96;59.13;97932.59;15272800;19;20013;-81
2022/05/31 11:48:58;;;;;;;3.38;0.47;;;;;;;21.23;56.31;97930.16;15281592;19;20654;-81
2022/05/31 11:54:28;;;;;;;2.30;0.60;;;;;;;21.28;54.10;97928.59;15296027;19;20385;-82
2022/05/31 11:59:39;;;;;;;0.93;0.50;;;;;;;21.62;54.74;97923.25;15289965;19;20986;-80
2022/05/31 12:04:51;;;;;;;1.05;0.60;;;;;;;21.74;55.27;97918.53;15290872;19;20015;-82
2022/05/31 12:10:03;;;;;;;1.00;0.60;;;;;;;22.03;52.44;97910.28;15288654;19;20018;-81
2022/05/31 12:15:18;;;;;;;1.02;0.45;;;;;;;22.02;52.78;97901.22;15292555;19;20015;-81
2022/05/31 12:20:29;;;;;;;1.50;0.50;;;;;;;22.02;55.00;97903.94;15287878;19;20102;-78
2022/05/31 12:25:39;;;;;;;;;;;;;;;21.69;49.52;97894.63;15289851;19;21058;-81
2022/05/31 12:30:54;;;;;;;1.80;0.63;;;;;;;21.53;52.41;97898.09;15286237;19;19915;-80
2022/05/31 12:36:01;;;;;;;1.45;0.65;;;;;;;21.31;54.96;97898.81;15284116;19;20021;-80
2022/05/31 12:41:09;;;;;;;0.93;0.60;;;;;;;21.12;53.77;97900.88;15308016;19;20070;-80
2022/05/31 12:46:34;;;;;;;3.53;0.70;;;;;;;21.14;54.58;97898.75;15311635;19;20018;-82
2022/05/31 12:51:41;;;;;;;1.05;0.47;;;;;;;21.37;56.98;97892.34;15296430;19;20018;-82
2022/05/31 12:57:21;;;;;;;3.78;0.77;;;;;;;21.51;53.12;97892.88;15306517;19;20014;-82
2022/05/31 13:02:41;;;;;;;1.35;0.60;;;;;;;21.58;53.28;97891.91;15306541;19;20038;-81
2022/05/31 13:07:48;;;;;;;0.83;0.50;;;;;;;21.72;54.03;97879.56;15299162;19;20010;-82
2022/05/31 13:24:00;;;;;;;2.28;0.55;;;;;;;21.36;55.17;97878.88;15291478;19;20471;-81
2022/05/31 13:29:13;;;;;;;2.45;0.60;;;;;;;21.03;54.52;97869.47;15293548;19;20025;-81
2022/05/31 13:34:32;;;;;;;1.95;0.55;;;;;;;21.25;53.64;97859.50;15295843;19;20328;-81
2022/05/31 13:39:44;;;;;;;3.63;0.60;;;;;;;21.53;53.87;97863.31;15292300;19;20014;-80
2022/05/31 13:44:52;;;;;;;2.13;0.68;;;;;;;22.10;53.08;97853.34;15308023;19;20060;-82
2022/05/31 13:50:08;;;;;;;0.90;0.50;;;;;;;22.21;51.66;97845.25;15318967;19;20039;-82
2022/05/31 13:55:16;;;;;;;5.50;0.80;;;;;;;21.99;53.50;97849.59;15312586;19;20010;-81
2022/05/31 14:00:41;;;;;;;2.85;0.57;;;;;;;21.80;50.24;97851.78;15298362;19;20014;-81
2022/05/31 14:05:55;;;;;;;3.53;0.60;;;;;;;22.00;52.13;97828.50;15302053;19;20039;-81
2022/05/31 14:11:00;;;;;;;9.80;0.90;;;;;;;22.37;51.55;97816.13;15299598;19;20035;-80
2022/05/31 14:16:21;;;;;;;2.08;0.63;;;;;;;22.05;50.87;97820.31;15315128;19;20010;-83
2022/05/31 14:21:28;;;;;;;2.30;0.80;;;;;;;21.70;53.70;97818.66;15311243;19;20066;-80
2022/05/31 14:26:36;;;;;;;1.00;0.60;;;;;;;21.58;52.02;97807.78;15312361;19;20011;-81
2022/05/31 14:31:50;;;;;;;1.27;0.60;;;;;;;21.39;51.02;97804.41;15322386;19;20021;-81
2022/05/31 14:36:58;;;;;;;0.88;0.50;;;;;;;21.01;51.73;97795.81;15311066;19;20018;-83
2022/05/31 14:42:04;;;;;;;0.80;0.50;;;;;;;20.88;51.96;97805.13;15304111;19;20475;-80
2022/05/31 14:47:15;;;;;;;3.13;0.68;;;;;;;20.72;50.14;97790.28;15300797;19;20013;-82
2022/05/31 14:52:26;;;;;;;0.80;0.50;;;;;;;20.80;52.03;97788.28;15294005;19;20455;-83
2022/05/31 15:03:01;;;;;;;1.00;0.60;;;;;;;20.75;51.21;97775.31;15355049;19;20010;-83
2022/05/31 15:08:06;;;;;;;1.00;0.50;;;;;;;20.62;52.46;97770.91;15297581;19;20026;-81
2022/05/31 15:24:03;;;;;;;1.92;0.52;;;;;;;20.00;54.17;97778.63;15295274;19;20015;-78
2022/05/31 15:29:12;;;;;;;2.50;0.68;;;;;;;19.76;53.68;97776.94;15268554;19;20034;-77
2022/05/31 15:34:19;;;;;;;1.00;0.60;;;;;;;19.52;54.45;97771.44;15365179;19;20010;-83
2022/05/31 15:39:25;;;;;;;2.05;0.50;;;;;;;19.27;54.68;97772.47;15291097;19;20036;-75
2022/05/31 15:44:30;;;;;;;3.67;0.73;;;;;;;19.14;57.03;97795.34;15286917;19;20018;-77
2022/05/31 15:49:39;;;;;;;2.58;0.63;;;;;;;19.08;57.56;97824.41;15284077;19;20017;-77
2022/05/31 15:54:49;;;;;;;0.93;0.55;;;;;;;18.54;72.77;97850.66;15286576;19;20657;-76
2022/05/31 15:59:56;;;;;;;1.45;0.60;;;;;;;18.25;79.81;97883.06;15285690;19;20039;-77
2022/05/31 16:05:06;;;;;;;1.75;0.60;;;;;;;18.22;89.49;97910.75;15282073;19;20025;-78
2022/05/31 16:16:30;;;;;;;2.13;0.80;;;;;;;14.35;100.00;98086.78;15293636;19;20023;-80
2022/05/31 16:21:39;;;;;;;4.63;1.17;;;;;;;13.61;100.00;98048.09;15297053;19;20031;-80
2022/05/31 16:32:29;;;;;;;1.10;1.00;;;;;;;13.03;100.00;97912.72;15293617;19;20031;-79
2022/05/31 16:42:54;;;;;;;1.65;0.93;;;;;;;12.68;100.00;97955.72;15287952;19;20022;-80
2022/05/31 16:47:59;;;;;;;1.73;1.00;;;;;;;12.77;100.00;97966.25;15290968;19;20015;-79
2022/05/31 16:53:11;;;;;;;3.35;1.13;;;;;;;13.21;100.00;97967.25;15284654;19;20025;-80
2022/05/31 16:58:16;;;;;;;1.52;0.90;;;;;;;13.44;100.00;97960.88;15297492;19;20360;-80
2022/05/31 17:03:21;;;;;;;2.00;0.90;;;;;;;13.70;100.00;97970.31;15292175;19;20369;-80
2022/05/31 17:19:06;;;;;;;1.52;1.10;;;;;;;13.71;100.00;97988.22;15286776;19;20098;-81
2022/05/31 17:24:15;;;;;;;2.70;1.02;;;;;;;13.56;100.00;97989.13;15287649;19;20015;-80
2022/05/31 17:29:27;;;;;;;2.75;1.13;;;;;;;13.82;100.00;97990.41;15293339;19;20011;-81
2022/05/31 17:34:32;;;;;;;1.67;1.20;;;;;;;13.50;100.00;97986.34;15287323;19;20021;-81
2022/05/31 17:39:41;;;;;;;1.80;1.27;;;;;;;13.36;100.00;97990.69;15281028;19;20038;-79
2022/05/31 17:44:46;;;;;;;1.73;1.20;;;;;;;13.29;100.00;98006.84;15287964;19;20794;-80
2022/05/31 17:49:52;;;;;;;1.90;1.30;;;;;;;13.09;100.00;98012.03;15289957;19;20499;-81
2022/05/31 17:55:00;;;;;;;2.60;1.38;;;;;;;13.07;100.00;98019.47;15293942;19;20042;-80
2022/05/31 18:00:07;;;;;;;1.67;1.38;;;;;;;12.94;100.00;98023.69;15290344;19;20015;-81
2022/05/31 18:05:12;;;;;;;1.75;1.50;;;;;;;12.91;100.00;98040.25;15291596;19;20023;-80
2022/05/31 18:10:22;;;;;;;1.60;1.50;;;;;;;12.77;100.00;98041.09;15292250;19;20030;-80
2022/05/31 18:15:26;;;;;;;1.50;1.40;;;;;;;12.57;100.00;98040.81;15307357;19;20025;-80
2022/05/31 18:20:33;;;;;;;1.60;1.40;;;;;;;12.61;100.00;98036.69;15300834;19;20015;-81
2022/05/31 18:25:43;;;;;;;1.58;1.48;;;;;;;12.41;100.00;98037.22;15308498;19;20014;-81
2022/05/31 18:30:50;;;;;;;1.42;1.30;;;;;;;12.21;100.00;98036.06;15301515;19;20006;-81
2022/05/31 18:35:56;;;;;;;1.60;1.40;;;;;;;12.13;100.00;98028.84;15301495;19;20021;-80
2022/05/31 18:41:04;;;;;;;1.45;1.30;;;;;;;12.06;100.00;98044.94;15302840;19;20010;-79
2022/05/31 18:46:09;;;;;;;2.85;1.50;;;;;;;11.96;100.00;98039.72;15294812;19;20014;-79
2022/05/31 18:51:14;;;;;;;1.95;1.40;;;;;;;11.96;100.00;98066.72;15304645;19;20014;-79
2022/05/31 18:56:22;;;;;;;1.52;1.42;;;;;;;11.94;100.00;98060.66;15304083;19;20037;-80
2022/05/31 19:01:54;;;;;;;1.63;1.40;;;;;;;11.87;100.00;98070.50;15313826;19;20002;-81
2022/05/31 19:06:59;;;;;;;2.38;1.50;;;;;;;11.85;100.00;98078.78;15338859;19;20018;-79
2022/05/31 19:12:08;;;;;;;1.73;1.60;;;;;;;11.79;100.00;98081.34;15281716;19;20748;-80
2022/05/31 19:17:16;;;;;;;1.85;1.65;;;;;;;11.67;100.00;98094.41;15279265;19;20010;-81
2022/05/31 19:22:21;;;;;;;1.45;1.35;;;;;;;11.70;100.00;98102.97;15292633;19;20015;-79
2022/05/31 19:27:29;;;;;;;2.42;1.40;;;;;;;11.47;100.00;98113.72;15293355;19;20011;-79
2022/05/31 19:32:34;;;;;;;1.60;1.50;;;;;;;11.37;100.00;98113.91;15292614;19;20021;-81
2022/05/31 19:37:40;;;;;;;4.20;1.50;;;;;;;11.36;100.00;98101.44;15290595;19;20057;-81
2022/05/31 19:42:48;;;;;;;2.38;1.52;;;;;;;11.35;100.00;98113.25;15292967;19;20797;-78
2022/05/31 19:47:53;;;;;;;1.63;1.48;;;;;;;11.39;100.00;98128.06;15284544;19;20039;-80
2022/05/31 19:53:00;;;;;;;3.45;1.70;;;;;;;11.36;100.00;98146.47;15287126;19;20781;-80
2022/05/31 19:58:08;;;;;;;2.80;1.60;;;;;;;11.37;100.00;98151.66;15281562;19;20973;-81
2022/05/31 20:03:13;;;;;;;2.05;1.50;;;;;;;11.27;100.00;98153.72;15289362;19;20011;-81
2022/05/31 20:08:19;;;;;;;2.35;1.80;;;;;;;11.18;100.00;98154.75;15288454;19;20019;-81
2022/05/31 20:13:27;;;;;;;1.92;1.70;;;;;;;11.15;100.00;98149.72;15307931;19;20010;-79
2022/05/31 20:18:58;;;;;;;1.95;1.80;;;;;;;11.08;100.00;98142.31;15324609;19;20013;-81
2022/05/31 20:24:07;;;;;;;2.40;1.70;;;;;;;11.04;100.00;98153.63;15337438;19;20022;-80
2022/05/31 20:29:16;;;;;;;1.60;1.50;;;;;;;11.01;100.00;98149.38;15291225;19;20018;-80
2022/05/31 20:34:21;;;;;;;2.63;1.40;;;;;;;10.98;100.00;98133.59;15296148;19;20010;-80
2022/05/31 20:39:30;;;;;;;2.00;1.80;;;;;;;10.88;100.00;98132.88;15289144;19;20035;-82
2022/05/31 20:44:38;;;;;;;2.00;1.80;;;;;;;10.84;100.00;98135.09;15293210;19;20049;-80
2022/05/31 20:49:43;;;;;;;2.63;1.80;;;;;;;10.81;100.00;98131.91;15298602;19;20027;-80
2022/05/31 20:54:48;;;;;;;2.00;1.75;;;;;;;10.71;100.00;98129.38;15293975;19;20021;-81
2022/05/31 20:59:57;;;;;;;2.22;1.90;;;;;;;10.64;100.00;98129.25;15302982;19;20006;-80
2022/05/31 21:05:02;;;;;;;3.28;2.20;;;;;;;10.53;100.00;98127.72;15293961;19;20027;-80
2022/05/31 21:10:10;;;;;;;2.50;2.10;;;;;;;10.44;100.00;98126.03;15299732;19;20347;-79
2022/05/31 21:15:18;;;;;;;2.65;2.00;;;;;;;10.41;100.00;98132.56;15298116;19;20683;-79
2022/05/31 21:20:23;;;;;;;2.10;1.63;;;;;;;10.36;100.00;98121.44;15294649;19;20014;-80
2022/05/31 21:25:36;;;;;;;2.45;2.10;;;;;;;10.26;100.00;98118.06;15304837;19;20010;-79
2022/05/31 21:30:44;;;;;;;3.20;2.00;;;;;;;10.22;100.00;98122.09;15297187;19;20025;-81
2022/05/31 21:35:50;;;;;;;2.60;2.40;;;;;;;10.12;100.00;98123.09;15290329;19;20361;-82
2022/05/31 21:41:14;;;;;;;2.42;2.28;;;;;;;10.03;100.00;98116.84;15293422;19;20006;-82
2022/05/31 21:46:22;;;;;;;2.38;2.17;;;;;;;10.02;100.00;98117.03;15292981;19;20014;-84
2022/05/31 21:51:30;;;;;;;2.40;2.20;;;;;;;9.96;100.00;98118.53;15284317;19;20030;-79
2022/05/31 21:56:38;;;;;;;3.10;2.80;;;;;;;9.82;100.00;98122.69;15288228;19;20021;-79
2022/05/31 22:01:46;;;;;;;4.90;2.90;;;;;;;9.72;100.00;98121.97;15291287;19;20365;-80
2022/05/31 22:06:52;;;;;;;3.95;3.50;;;;;;;9.67;100.00;98124.34;15290779;19;20010;-80
2022/05/31 22:11:57;;;;;;;6.40;3.88;;;;;;;9.62;100.00;98132.91;15294326;19;20014;-80
2022/05/31 22:17:04;;;;;;;6.63;3.55;;;;;;;9.62;100.00;98129.34;15292211;19;20015;-83
2022/05/31 22:22:11;;;;;;;4.22;3.40;;;;;;;9.60;100.00;98123.28;15296522;19;20031;-80
2022/05/31 22:27:16;;;;;;;3.50;3.20;;;;;;;9.61;100.00;98130.34;15332161;19;20010;-80
2022/05/31 22:32:24;;;;;;;189.70;6.45;;;;;;;9.58;100.00;98133.38;15307670;19;20007;-79
2022/05/31 22:37:30;;;;;;;53.63;5.10;;;;;;;9.61;100.00;98136.59;15286079;19;20032;-78
2022/05/31 22:42:41;;;;;;;226.00;8.32;;;;;;;9.56;100.00;98137.06;15287119;19;20011;-79
2022/05/31 22:47:50;;;;;;;155.57;6.68;;;;;;;9.55;100.00;98137.22;15287005;19;20045;-78
2022/05/31 22:52:56;;;;;;;627.95;12.85;;;;;;;9.54;100.00;98144.47;15287314;19;20006;-80
2022/05/31 22:58:04;;;;;;;549.58;11.60;;;;;;;9.54;100.00;98148.97;15284868;19;20014;-80
2022/05/31 23:03:15;;;;;;;478.20;11.00;;;;;;;9.54;100.00;98157.91;15279773;19;20103;-80
2022/05/31 23:08:23;;;;;;;663.60;13.95;;;;;;;9.56;100.00;98168.50;15288005;19;20039;-80
2022/05/31 23:13:29;;;;;;;719.70;14.55;;;;;;;9.56;100.00;98168.50;15286140;19;20055;-78
2022/05/31 23:18:37;;;;;;;562.92;12.02;;;;;;;9.54;100.00;98174.03;15282381;19;20106;-79
2022/05/31 23:23:50;;;;;;;179.75;6.20;;;;;;;9.60;100.00;98160.94;15282656;19;20015;-80
2022/05/31 23:28:59;;;;;;;39.80;4.80;;;;;;;9.62;100.00;98159.78;15281749;19;20039;-80
2022/05/31 23:34:10;;;;;;;113.78;4.97;;;;;;;9.64;100.00;98163.13;15281678;19;20043;-79
2022/05/31 23:39:16;;;;;;;190.00;6.15;;;;;;;9.63;100.00;98160.63;15280665;19;20018;-80
2022/05/31 23:44:21;;;;;;;118.18;5.07;;;;;;;9.65;100.00;98164.00;15290504;19;20050;-80
2022/05/31 23:49:31;;;;;;;124.07;5.53;;;;;;;9.67;100.00;98156.63;15297767;19;20018;-80
2022/05/31 23:54:38;;;;;;;284.02;6.90;;;;;;;9.62;100.00;98159.78;15297850;19;20765;-80
2022/05/31 23:59:44;;;;;;;184.02;5.82;;;;;;;9.62;100.00;98151.72;15305501;19;20784;-81
